
<gpx xmlns="http://www.topografix.com/GPX/1/1" xmlns:gpxx="http://www.garmin.com/xmlschemas/GpxExtensions/v3" xmlns:xsi="http://www.w3.org/2001/XMLSchema-instance" version="1.1" creator="Adze - http://kobotsw.com/apps/adze" xsi:schemaLocation="http://www.topografix.com/GPX/1/1 http://www.topografix.com/GPX/1/1/gpx.xsd http://www.garmin.com/xmlschemas/GpxExtensions/v3 http://www.garmin.com/xmlschemas/GpxExtensionsv3.xsd">
    <metadata>
        <name>Untitled Document</name>
        <link href="http://www.garmin.com"></link>
        <time>2018-02-26T07:32:42.389Z</time>
    </metadata>
    <trk>
        <name>Saturday</name>
        <extensions>
            <gpxx:TrackExtension xmlns:gpxx="http://www.garmin.com/xmlschemas/GpxExtensions/v3">
                <gpxx:DisplayColor>Red</gpxx:DisplayColor>
            </gpxx:TrackExtension>
        </extensions>
        <trkseg>
            <trkpt lon="99.959398" lat="12.531559">
                <ele>63.580000</ele>
                <time>2013-06-29T06:02:19Z</time>
            </trkpt>
            <trkpt lon="99.959604" lat="12.531675">
                <ele>58.300000</ele>
                <time>2013-06-29T06:03:51Z</time>
            </trkpt>
            <trkpt lon="99.959475" lat="12.531121">
                <ele>56.370000</ele>
                <time>2013-06-29T06:04:15Z</time>
            </trkpt>
            <trkpt lon="99.958489" lat="12.530388">
                <ele>56.860000</ele>
                <time>2013-06-29T06:04:54Z</time>
            </trkpt>
            <trkpt lon="99.957679" lat="12.529356">
                <ele>58.780000</ele>
                <time>2013-06-29T06:05:34Z</time>
            </trkpt>
            <trkpt lon="99.957382" lat="12.529122">
                <ele>58.780000</ele>
                <time>2013-06-29T06:05:46Z</time>
            </trkpt>
            <trkpt lon="99.956634" lat="12.528844">
                <ele>59.740000</ele>
                <time>2013-06-29T06:06:09Z</time>
            </trkpt>
            <trkpt lon="99.955473" lat="12.528978">
                <ele>60.220000</ele>
                <time>2013-06-29T06:06:41Z</time>
            </trkpt>
            <trkpt lon="99.955394" lat="12.528892">
                <ele>59.740000</ele>
                <time>2013-06-29T06:06:45Z</time>
            </trkpt>
            <trkpt lon="99.954923" lat="12.526270">
                <ele>61.660000</ele>
                <time>2013-06-29T06:07:59Z</time>
            </trkpt>
            <trkpt lon="99.955594" lat="12.525223">
                <ele>60.700000</ele>
                <time>2013-06-29T06:08:28Z</time>
            </trkpt>
            <trkpt lon="99.956071" lat="12.523149">
                <ele>65.030000</ele>
                <time>2013-06-29T06:09:28Z</time>
            </trkpt>
            <trkpt lon="99.955936" lat="12.522322">
                <ele>67.430000</ele>
                <time>2013-06-29T06:09:52Z</time>
            </trkpt>
            <trkpt lon="99.954463" lat="12.522960">
                <ele>67.910000</ele>
                <time>2013-06-29T06:10:35Z</time>
            </trkpt>
            <trkpt lon="99.953608" lat="12.522806">
                <ele>66.950000</ele>
                <time>2013-06-29T06:10:55Z</time>
            </trkpt>
            <trkpt lon="99.953154" lat="12.522570">
                <ele>69.350000</ele>
                <time>2013-06-29T06:11:09Z</time>
            </trkpt>
            <trkpt lon="99.952726" lat="12.521970">
                <ele>74.640000</ele>
                <time>2013-06-29T06:11:32Z</time>
            </trkpt>
            <trkpt lon="99.951944" lat="12.521935">
                <ele>76.080000</ele>
                <time>2013-06-29T06:11:55Z</time>
            </trkpt>
            <trkpt lon="99.948426" lat="12.519793">
                <ele>92.900000</ele>
                <time>2013-06-29T06:15:46Z</time>
            </trkpt>
            <trkpt lon="99.947677" lat="12.519592">
                <ele>102.040000</ele>
                <time>2013-06-29T06:17:04Z</time>
            </trkpt>
            <trkpt lon="99.947023" lat="12.519522">
                <ele>104.440000</ele>
                <time>2013-06-29T06:17:52Z</time>
            </trkpt>
            <trkpt lon="99.944730" lat="12.520074">
                <ele>95.310000</ele>
                <time>2013-06-29T06:19:34Z</time>
            </trkpt>
            <trkpt lon="99.944544" lat="12.520300">
                <ele>91.940000</ele>
                <time>2013-06-29T06:19:41Z</time>
            </trkpt>
            <trkpt lon="99.944058" lat="12.523081">
                <ele>72.720000</ele>
                <time>2013-06-29T06:22:34Z</time>
            </trkpt>
            <trkpt lon="99.944153" lat="12.523985">
                <ele>64.070000</ele>
                <time>2013-06-29T06:23:11Z</time>
            </trkpt>
            <trkpt lon="99.943593" lat="12.524833">
                <ele>58.780000</ele>
                <time>2013-06-29T06:24:14Z</time>
            </trkpt>
            <trkpt lon="99.942565" lat="12.524403">
                <ele>58.780000</ele>
                <time>2013-06-29T06:26:51Z</time>
            </trkpt>
            <trkpt lon="99.941632" lat="12.523651">
                <ele>59.260000</ele>
                <time>2013-06-29T06:27:27Z</time>
            </trkpt>
            <trkpt lon="99.939846" lat="12.523305">
                <ele>60.700000</ele>
                <time>2013-06-29T06:28:32Z</time>
            </trkpt>
            <trkpt lon="99.939788" lat="12.523313">
                <ele>60.700000</ele>
                <time>2013-06-29T06:28:39Z</time>
            </trkpt>
            <trkpt lon="99.940227" lat="12.522503">
                <ele>62.140000</ele>
                <time>2013-06-29T06:29:07Z</time>
            </trkpt>
            <trkpt lon="99.940247" lat="12.521354">
                <ele>68.870000</ele>
                <time>2013-06-29T06:29:43Z</time>
            </trkpt>
            <trkpt lon="99.939687" lat="12.521431">
                <ele>69.830000</ele>
                <time>2013-06-29T06:30:37Z</time>
            </trkpt>
            <trkpt lon="99.939513" lat="12.520996">
                <ele>72.720000</ele>
                <time>2013-06-29T06:31:04Z</time>
            </trkpt>
            <trkpt lon="99.939179" lat="12.520524">
                <ele>72.720000</ele>
                <time>2013-06-29T06:32:23Z</time>
            </trkpt>
            <trkpt lon="99.938620" lat="12.520496">
                <ele>68.870000</ele>
                <time>2013-06-29T06:32:41Z</time>
            </trkpt>
            <trkpt lon="99.937920" lat="12.518239">
                <ele>72.240000</ele>
                <time>2013-06-29T06:34:46Z</time>
            </trkpt>
            <trkpt lon="99.937507" lat="12.517253">
                <ele>68.390000</ele>
                <time>2013-06-29T06:35:41Z</time>
            </trkpt>
            <trkpt lon="99.936734" lat="12.517382">
                <ele>64.070000</ele>
                <time>2013-06-29T06:36:13Z</time>
            </trkpt>
            <trkpt lon="99.936592" lat="12.514356">
                <ele>71.270000</ele>
                <time>2013-06-29T06:38:21Z</time>
            </trkpt>
            <trkpt lon="99.938564" lat="12.512896">
                <ele>78.480000</ele>
                <time>2013-06-29T06:40:10Z</time>
            </trkpt>
            <trkpt lon="99.940010" lat="12.512370">
                <ele>85.210000</ele>
                <time>2013-06-29T06:41:45Z</time>
            </trkpt>
            <trkpt lon="99.941998" lat="12.512095">
                <ele>90.500000</ele>
                <time>2013-06-29T06:46:25Z</time>
            </trkpt>
            <trkpt lon="99.942493" lat="12.511459">
                <ele>92.900000</ele>
                <time>2013-06-29T06:47:08Z</time>
            </trkpt>
            <trkpt lon="99.942515" lat="12.510934">
                <ele>96.270000</ele>
                <time>2013-06-29T06:47:37Z</time>
            </trkpt>
            <trkpt lon="99.943204" lat="12.510638">
                <ele>99.150000</ele>
                <time>2013-06-29T06:48:20Z</time>
            </trkpt>
            <trkpt lon="99.943578" lat="12.509297">
                <ele>99.150000</ele>
                <time>2013-06-29T06:49:21Z</time>
            </trkpt>
            <trkpt lon="99.943312" lat="12.508932">
                <ele>96.270000</ele>
                <time>2013-06-29T06:49:38Z</time>
            </trkpt>
            <trkpt lon="99.942366" lat="12.508796">
                <ele>94.830000</ele>
                <time>2013-06-29T06:50:13Z</time>
            </trkpt>
            <trkpt lon="99.942174" lat="12.507880">
                <ele>107.810000</ele>
                <time>2013-06-29T06:52:56Z</time>
            </trkpt>
            <trkpt lon="99.941517" lat="12.506230">
                <ele>104.440000</ele>
                <time>2013-06-29T06:55:13Z</time>
            </trkpt>
            <trkpt lon="99.940428" lat="12.506386">
                <ele>93.870000</ele>
                <time>2013-06-29T06:55:44Z</time>
            </trkpt>
            <trkpt lon="99.939594" lat="12.505744">
                <ele>92.420000</ele>
                <time>2013-06-29T06:57:03Z</time>
            </trkpt>
            <trkpt lon="99.936496" lat="12.505610">
                <ele>70.790000</ele>
                <time>2013-06-29T06:59:52Z</time>
            </trkpt>
            <trkpt lon="99.936594" lat="12.503128">
                <ele>79.930000</ele>
                <time>2013-06-29T07:01:50Z</time>
            </trkpt>
            <trkpt lon="99.936714" lat="12.502465">
                <ele>79.450000</ele>
                <time>2013-06-29T07:02:10Z</time>
            </trkpt>
            <trkpt lon="99.936528" lat="12.500088">
                <ele>81.370000</ele>
                <time>2013-06-29T07:03:00Z</time>
            </trkpt>
            <trkpt lon="99.936920" lat="12.498203">
                <ele>80.410000</ele>
                <time>2013-06-29T07:03:43Z</time>
            </trkpt>
            <trkpt lon="99.937921" lat="12.497435">
                <ele>76.080000</ele>
                <time>2013-06-29T07:04:02Z</time>
            </trkpt>
            <trkpt lon="99.939214" lat="12.497381">
                <ele>76.080000</ele>
                <time>2013-06-29T07:04:25Z</time>
            </trkpt>
            <trkpt lon="99.940150" lat="12.496351">
                <ele>70.790000</ele>
                <time>2013-06-29T07:04:46Z</time>
            </trkpt>
            <trkpt lon="99.940885" lat="12.496111">
                <ele>72.240000</ele>
                <time>2013-06-29T07:04:58Z</time>
            </trkpt>
            <trkpt lon="99.941475" lat="12.495532">
                <ele>78.000000</ele>
                <time>2013-06-29T07:05:24Z</time>
            </trkpt>
            <trkpt lon="99.941650" lat="12.494057">
                <ele>85.690000</ele>
                <time>2013-06-29T07:06:12Z</time>
            </trkpt>
            <trkpt lon="99.941387" lat="12.492898">
                <ele>86.180000</ele>
                <time>2013-06-29T07:06:45Z</time>
            </trkpt>
            <trkpt lon="99.941627" lat="12.492515">
                <ele>87.620000</ele>
                <time>2013-06-29T07:06:58Z</time>
            </trkpt>
            <trkpt lon="99.942893" lat="12.491828">
                <ele>88.100000</ele>
                <time>2013-06-29T07:07:33Z</time>
            </trkpt>
            <trkpt lon="99.942991" lat="12.491264">
                <ele>86.660000</ele>
                <time>2013-06-29T07:07:46Z</time>
            </trkpt>
            <trkpt lon="99.942368" lat="12.488898">
                <ele>83.290000</ele>
                <time>2013-06-29T07:08:28Z</time>
            </trkpt>
            <trkpt lon="99.942130" lat="12.488432">
                <ele>81.850000</ele>
                <time>2013-06-29T07:08:37Z</time>
            </trkpt>
            <trkpt lon="99.942290" lat="12.486416">
                <ele>82.810000</ele>
                <time>2013-06-29T07:09:21Z</time>
            </trkpt>
            <trkpt lon="99.941675" lat="12.486181">
                <ele>79.450000</ele>
                <time>2013-06-29T07:09:36Z</time>
            </trkpt>
            <trkpt lon="99.941437" lat="12.485827">
                <ele>77.520000</ele>
                <time>2013-06-29T07:09:43Z</time>
            </trkpt>
            <trkpt lon="99.941911" lat="12.484668">
                <ele>78.480000</ele>
                <time>2013-06-29T07:10:12Z</time>
            </trkpt>
            <trkpt lon="99.943246" lat="12.484587">
                <ele>83.770000</ele>
                <time>2013-06-29T07:11:30Z</time>
            </trkpt>
            <trkpt lon="99.942663" lat="12.483354">
                <ele>86.180000</ele>
                <time>2013-06-29T07:13:59Z</time>
            </trkpt>
            <trkpt lon="99.941983" lat="12.482713">
                <ele>80.890000</ele>
                <time>2013-06-29T07:14:17Z</time>
            </trkpt>
            <trkpt lon="99.939907" lat="12.481777">
                <ele>76.560000</ele>
                <time>2013-06-29T07:15:07Z</time>
            </trkpt>
            <trkpt lon="99.938380" lat="12.481763">
                <ele>66.950000</ele>
                <time>2013-06-29T07:15:31Z</time>
            </trkpt>
            <trkpt lon="99.937707" lat="12.481170">
                <ele>65.510000</ele>
                <time>2013-06-29T07:15:45Z</time>
            </trkpt>
            <trkpt lon="99.936259" lat="12.481773">
                <ele>58.780000</ele>
                <time>2013-06-29T07:16:34Z</time>
            </trkpt>
            <trkpt lon="99.935753" lat="12.480903">
                <ele>54.930000</ele>
                <time>2013-06-29T07:17:01Z</time>
            </trkpt>
            <trkpt lon="99.933500" lat="12.479555">
                <ele>52.530000</ele>
                <time>2013-06-29T07:18:05Z</time>
            </trkpt>
            <trkpt lon="99.933795" lat="12.475711">
                <ele>50.130000</ele>
                <time>2013-06-29T07:19:49Z</time>
            </trkpt>
            <trkpt lon="99.932462" lat="12.473477">
                <ele>58.780000</ele>
                <time>2013-06-29T07:21:10Z</time>
            </trkpt>
            <trkpt lon="99.933645" lat="12.473051">
                <ele>60.220000</ele>
                <time>2013-06-29T07:22:07Z</time>
            </trkpt>
            <trkpt lon="99.935236" lat="12.471801">
                <ele>63.580000</ele>
                <time>2013-06-29T07:23:37Z</time>
            </trkpt>
            <trkpt lon="99.935478" lat="12.471473">
                <ele>63.580000</ele>
                <time>2013-06-29T07:23:50Z</time>
            </trkpt>
            <trkpt lon="99.935986" lat="12.469804">
                <ele>67.910000</ele>
                <time>2013-06-29T07:24:49Z</time>
            </trkpt>
            <trkpt lon="99.935820" lat="12.468284">
                <ele>73.200000</ele>
                <time>2013-06-29T07:25:48Z</time>
            </trkpt>
            <trkpt lon="99.935352" lat="12.468237">
                <ele>73.680000</ele>
                <time>2013-06-29T07:26:04Z</time>
            </trkpt>
            <trkpt lon="99.930392" lat="12.464916">
                <ele>53.490000</ele>
                <time>2013-06-29T07:27:30Z</time>
            </trkpt>
            <trkpt lon="99.929739" lat="12.464073">
                <ele>48.680000</ele>
                <time>2013-06-29T07:27:43Z</time>
            </trkpt>
            <trkpt lon="99.928207" lat="12.463565">
                <ele>44.360000</ele>
                <time>2013-06-29T07:28:03Z</time>
            </trkpt>
            <trkpt lon="99.925388" lat="12.461981">
                <ele>36.190000</ele>
                <time>2013-06-29T07:28:55Z</time>
            </trkpt>
            <trkpt lon="99.926169" lat="12.460433">
                <ele>35.710000</ele>
                <time>2013-06-29T07:30:07Z</time>
            </trkpt>
            <trkpt lon="99.927202" lat="12.459342">
                <ele>35.230000</ele>
                <time>2013-06-29T07:30:44Z</time>
            </trkpt>
            <trkpt lon="99.928323" lat="12.457222">
                <ele>40.030000</ele>
                <time>2013-06-29T07:31:56Z</time>
            </trkpt>
            <trkpt lon="99.928564" lat="12.456784">
                <ele>40.030000</ele>
                <time>2013-06-29T07:32:11Z</time>
            </trkpt>
            <trkpt lon="99.929265" lat="12.456291">
                <ele>40.510000</ele>
                <time>2013-06-29T07:32:36Z</time>
            </trkpt>
            <trkpt lon="99.930046" lat="12.455038">
                <ele>43.400000</ele>
                <time>2013-06-29T07:33:19Z</time>
            </trkpt>
            <trkpt lon="99.931992" lat="12.451142">
                <ele>40.030000</ele>
                <time>2013-06-29T07:35:05Z</time>
            </trkpt>
            <trkpt lon="99.932219" lat="12.451028">
                <ele>39.550000</ele>
                <time>2013-06-29T07:35:11Z</time>
            </trkpt>
            <trkpt lon="99.932857" lat="12.451564">
                <ele>43.400000</ele>
                <time>2013-06-29T07:35:34Z</time>
            </trkpt>
            <trkpt lon="99.934695" lat="12.451057">
                <ele>40.030000</ele>
                <time>2013-06-29T07:36:24Z</time>
            </trkpt>
            <trkpt lon="99.935239" lat="12.452213">
                <ele>44.840000</ele>
                <time>2013-06-29T07:37:13Z</time>
            </trkpt>
            <trkpt lon="99.935045" lat="12.452863">
                <ele>47.240000</ele>
                <time>2013-06-29T07:37:42Z</time>
            </trkpt>
            <trkpt lon="99.935302" lat="12.453508">
                <ele>48.200000</ele>
                <time>2013-06-29T07:46:48Z</time>
            </trkpt>
            <trkpt lon="99.936250" lat="12.453416">
                <ele>47.720000</ele>
                <time>2013-06-29T07:48:22Z</time>
            </trkpt>
            <trkpt lon="99.936610" lat="12.453062">
                <ele>46.280000</ele>
                <time>2013-06-29T07:48:37Z</time>
            </trkpt>
            <trkpt lon="99.936966" lat="12.453110">
                <ele>45.320000</ele>
                <time>2013-06-29T07:48:48Z</time>
            </trkpt>
            <trkpt lon="99.937770" lat="12.453443">
                <ele>46.760000</ele>
                <time>2013-06-29T07:54:34Z</time>
            </trkpt>
            <trkpt lon="99.938189" lat="12.454208">
                <ele>51.570000</ele>
                <time>2013-06-29T07:55:24Z</time>
            </trkpt>
            <trkpt lon="99.938877" lat="12.454994">
                <ele>50.130000</ele>
                <time>2013-06-29T07:55:57Z</time>
            </trkpt>
            <trkpt lon="99.939269" lat="12.455085">
                <ele>50.610000</ele>
                <time>2013-06-29T07:56:08Z</time>
            </trkpt>
            <trkpt lon="99.939570" lat="12.455108">
                <ele>50.130000</ele>
                <time>2013-06-29T07:56:16Z</time>
            </trkpt>
            <trkpt lon="99.939716" lat="12.454338">
                <ele>47.240000</ele>
                <time>2013-06-29T07:56:39Z</time>
            </trkpt>
            <trkpt lon="99.941183" lat="12.451740">
                <ele>44.840000</ele>
                <time>2013-06-29T07:58:10Z</time>
            </trkpt>
            <trkpt lon="99.943112" lat="12.450076">
                <ele>50.130000</ele>
                <time>2013-06-29T07:59:22Z</time>
            </trkpt>
            <trkpt lon="99.943738" lat="12.449625">
                <ele>48.680000</ele>
                <time>2013-06-29T07:59:41Z</time>
            </trkpt>
            <trkpt lon="99.944109" lat="12.448963">
                <ele>48.200000</ele>
                <time>2013-06-29T07:59:56Z</time>
            </trkpt>
            <trkpt lon="99.944492" lat="12.448595">
                <ele>47.240000</ele>
                <time>2013-06-29T08:00:06Z</time>
            </trkpt>
            <trkpt lon="99.945297" lat="12.440603">
                <ele>37.630000</ele>
                <time>2013-06-29T08:03:00Z</time>
            </trkpt>
            <trkpt lon="99.944581" lat="12.438745">
                <ele>36.190000</ele>
                <time>2013-06-29T08:03:39Z</time>
            </trkpt>
            <trkpt lon="99.944828" lat="12.437948">
                <ele>36.190000</ele>
                <time>2013-06-29T08:04:45Z</time>
            </trkpt>
            <trkpt lon="99.945003" lat="12.437461">
                <ele>35.230000</ele>
                <time>2013-06-29T08:04:55Z</time>
            </trkpt>
            <trkpt lon="99.944365" lat="12.434991">
                <ele>32.340000</ele>
                <time>2013-06-29T08:05:39Z</time>
            </trkpt>
            <trkpt lon="99.944307" lat="12.433995">
                <ele>30.900000</ele>
                <time>2013-06-29T08:05:57Z</time>
            </trkpt>
            <trkpt lon="99.945209" lat="12.432614">
                <ele>30.420000</ele>
                <time>2013-06-29T08:06:31Z</time>
            </trkpt>
            <trkpt lon="99.945328" lat="12.432704">
                <ele>36.190000</ele>
                <time>2013-06-29T08:16:28Z</time>
            </trkpt>
            <trkpt lon="99.945771" lat="12.430045">
                <ele>28.500000</ele>
                <time>2013-06-29T08:23:53Z</time>
            </trkpt>
            <trkpt lon="99.947823" lat="12.426282">
                <ele>28.500000</ele>
                <time>2013-06-29T08:25:01Z</time>
            </trkpt>
            <trkpt lon="99.948089" lat="12.425686">
                <ele>26.090000</ele>
                <time>2013-06-29T08:25:12Z</time>
            </trkpt>
            <trkpt lon="99.950075" lat="12.424289">
                <ele>31.860000</ele>
                <time>2013-06-29T08:26:01Z</time>
            </trkpt>
            <trkpt lon="99.951194" lat="12.422945">
                <ele>27.050000</ele>
                <time>2013-06-29T08:26:24Z</time>
            </trkpt>
            <trkpt lon="99.952362" lat="12.422681">
                <ele>27.530000</ele>
                <time>2013-06-29T08:26:41Z</time>
            </trkpt>
            <trkpt lon="99.953304" lat="12.421885">
                <ele>29.940000</ele>
                <time>2013-06-29T08:27:00Z</time>
            </trkpt>
            <trkpt lon="99.953606" lat="12.421877">
                <ele>31.860000</ele>
                <time>2013-06-29T08:27:07Z</time>
            </trkpt>
            <trkpt lon="99.955995" lat="12.424305">
                <ele>31.860000</ele>
                <time>2013-06-29T08:28:01Z</time>
            </trkpt>
            <trkpt lon="99.956446" lat="12.425367">
                <ele>32.820000</ele>
                <time>2013-06-29T08:28:19Z</time>
            </trkpt>
            <trkpt lon="99.959509" lat="12.426382">
                <ele>39.550000</ele>
                <time>2013-06-29T08:29:27Z</time>
            </trkpt>
            <trkpt lon="99.961471" lat="12.426538">
                <ele>47.720000</ele>
                <time>2013-06-29T08:30:14Z</time>
            </trkpt>
            <trkpt lon="99.962558" lat="12.424098">
                <ele>58.300000</ele>
                <time>2013-06-29T08:31:38Z</time>
            </trkpt>
            <trkpt lon="99.963541" lat="12.424137">
                <ele>65.990000</ele>
                <time>2013-06-29T08:32:18Z</time>
            </trkpt>
            <trkpt lon="99.964040" lat="12.423701">
                <ele>69.350000</ele>
                <time>2013-06-29T08:32:44Z</time>
            </trkpt>
            <trkpt lon="99.964490" lat="12.420123">
                <ele>50.610000</ele>
                <time>2013-06-29T08:33:38Z</time>
            </trkpt>
            <trkpt lon="99.964341" lat="12.418837">
                <ele>47.720000</ele>
                <time>2013-06-29T08:33:56Z</time>
            </trkpt>
            <trkpt lon="99.964200" lat="12.418521">
                <ele>46.280000</ele>
                <time>2013-06-29T08:34:02Z</time>
            </trkpt>
            <trkpt lon="99.963580" lat="12.418465">
                <ele>44.840000</ele>
                <time>2013-06-29T08:34:10Z</time>
            </trkpt>
            <trkpt lon="99.962915" lat="12.418004">
                <ele>41.950000</ele>
                <time>2013-06-29T08:34:20Z</time>
            </trkpt>
            <trkpt lon="99.961425" lat="12.416574">
                <ele>36.190000</ele>
                <time>2013-06-29T08:34:47Z</time>
            </trkpt>
            <trkpt lon="99.962636" lat="12.415812">
                <ele>36.190000</ele>
                <time>2013-06-29T08:35:16Z</time>
            </trkpt>
            <trkpt lon="99.962326" lat="12.414294">
                <ele>38.590000</ele>
                <time>2013-06-29T08:35:45Z</time>
            </trkpt>
            <trkpt lon="99.961973" lat="12.413253">
                <ele>36.670000</ele>
                <time>2013-06-29T08:36:05Z</time>
            </trkpt>
            <trkpt lon="99.962870" lat="12.413209">
                <ele>51.090000</ele>
                <time>2013-06-29T08:37:10Z</time>
            </trkpt>
            <trkpt lon="99.962965" lat="12.412879">
                <ele>56.370000</ele>
                <time>2013-06-29T08:37:40Z</time>
            </trkpt>
            <trkpt lon="99.963306" lat="12.411534">
                <ele>65.030000</ele>
                <time>2013-06-29T08:39:00Z</time>
            </trkpt>
            <trkpt lon="99.963558" lat="12.411278">
                <ele>66.470000</ele>
                <time>2013-06-29T08:39:19Z</time>
            </trkpt>
            <trkpt lon="99.963775" lat="12.411433">
                <ele>69.830000</ele>
                <time>2013-06-29T08:39:39Z</time>
            </trkpt>
            <trkpt lon="99.964016" lat="12.412732">
                <ele>66.950000</ele>
                <time>2013-06-29T08:40:10Z</time>
            </trkpt>
            <trkpt lon="99.964322" lat="12.412943">
                <ele>66.470000</ele>
                <time>2013-06-29T08:40:18Z</time>
            </trkpt>
            <trkpt lon="99.965568" lat="12.413096">
                <ele>45.320000</ele>
                <time>2013-06-29T08:40:33Z</time>
            </trkpt>
            <trkpt lon="99.964379" lat="12.412396">
                <ele>48.200000</ele>
                <time>2013-06-29T08:41:08Z</time>
            </trkpt>
            <trkpt lon="99.964168" lat="12.410089">
                <ele>30.900000</ele>
                <time>2013-06-29T08:41:38Z</time>
            </trkpt>
            <trkpt lon="99.964718" lat="12.408515">
                <ele>20.320000</ele>
                <time>2013-06-29T08:42:01Z</time>
            </trkpt>
            <trkpt lon="99.965081" lat="12.409199">
                <ele>23.690000</ele>
                <time>2013-06-29T08:42:29Z</time>
            </trkpt>
            <trkpt lon="99.966132" lat="12.408709">
                <ele>18.880000</ele>
                <time>2013-06-29T08:42:49Z</time>
            </trkpt>
            <trkpt lon="99.966289" lat="12.407786">
                <ele>17.920000</ele>
                <time>2013-06-29T08:43:21Z</time>
            </trkpt>
            <trkpt lon="99.965895" lat="12.406631">
                <ele>16.480000</ele>
                <time>2013-06-29T08:43:42Z</time>
            </trkpt>
            <trkpt lon="99.965874" lat="12.406384">
                <ele>15.520000</ele>
                <time>2013-06-29T08:43:48Z</time>
            </trkpt>
            <trkpt lon="99.966922" lat="12.406287">
                <ele>15.520000</ele>
                <time>2013-06-29T08:44:12Z</time>
            </trkpt>
            <trkpt lon="99.967193" lat="12.406496">
                <ele>16.480000</ele>
                <time>2013-06-29T08:44:19Z</time>
            </trkpt>
            <trkpt lon="99.968534" lat="12.407222">
                <ele>16.480000</ele>
                <time>2013-06-29T08:44:49Z</time>
            </trkpt>
            <trkpt lon="99.970918" lat="12.407326">
                <ele>15.520000</ele>
                <time>2013-06-29T08:45:28Z</time>
            </trkpt>
            <trkpt lon="99.973251" lat="12.409412">
                <ele>16.000000</ele>
                <time>2013-06-29T08:46:20Z</time>
            </trkpt>
            <trkpt lon="99.974896" lat="12.410293">
                <ele>20.810000</ele>
                <time>2013-06-29T08:47:01Z</time>
            </trkpt>
            <trkpt lon="99.974654" lat="12.411233">
                <ele>31.860000</ele>
                <time>2013-06-29T08:48:01Z</time>
            </trkpt>
            <trkpt lon="99.973995" lat="12.411627">
                <ele>33.780000</ele>
                <time>2013-06-29T08:48:30Z</time>
            </trkpt>
            <trkpt lon="99.971442" lat="12.411713">
                <ele>42.440000</ele>
                <time>2013-06-29T08:49:43Z</time>
            </trkpt>
            <trkpt lon="99.972242" lat="12.412145">
                <ele>54.450000</ele>
                <time>2013-06-29T08:50:54Z</time>
            </trkpt>
            <trkpt lon="99.972551" lat="12.412268">
                <ele>56.860000</ele>
                <time>2013-06-29T08:51:18Z</time>
            </trkpt>
            <trkpt lon="99.972661" lat="12.412451">
                <ele>58.300000</ele>
                <time>2013-06-29T08:51:33Z</time>
            </trkpt>
            <trkpt lon="99.972915" lat="12.412966">
                <ele>59.740000</ele>
                <time>2013-06-29T08:52:02Z</time>
            </trkpt>
            <trkpt lon="99.972598" lat="12.413498">
                <ele>58.780000</ele>
                <time>2013-06-29T08:52:18Z</time>
            </trkpt>
            <trkpt lon="99.972089" lat="12.413761">
                <ele>55.410000</ele>
                <time>2013-06-29T08:52:28Z</time>
            </trkpt>
            <trkpt lon="99.971929" lat="12.414162">
                <ele>53.490000</ele>
                <time>2013-06-29T08:52:34Z</time>
            </trkpt>
            <trkpt lon="99.972309" lat="12.416141">
                <ele>54.930000</ele>
                <time>2013-06-29T08:53:11Z</time>
            </trkpt>
            <trkpt lon="99.972497" lat="12.416564">
                <ele>54.930000</ele>
                <time>2013-06-29T08:53:24Z</time>
            </trkpt>
            <trkpt lon="99.972924" lat="12.417328">
                <ele>54.450000</ele>
                <time>2013-06-29T08:53:45Z</time>
            </trkpt>
            <trkpt lon="99.973387" lat="12.417816">
                <ele>50.130000</ele>
                <time>2013-06-29T08:53:54Z</time>
            </trkpt>
            <trkpt lon="99.974115" lat="12.418167">
                <ele>41.950000</ele>
                <time>2013-06-29T08:54:05Z</time>
            </trkpt>
            <trkpt lon="99.975623" lat="12.417801">
                <ele>28.980000</ele>
                <time>2013-06-29T08:54:25Z</time>
            </trkpt>
            <trkpt lon="99.976040" lat="12.417938">
                <ele>26.090000</ele>
                <time>2013-06-29T08:54:30Z</time>
            </trkpt>
            <trkpt lon="99.977401" lat="12.419569">
                <ele>19.360000</ele>
                <time>2013-06-29T08:54:56Z</time>
            </trkpt>
            <trkpt lon="99.978286" lat="12.420136">
                <ele>15.520000</ele>
                <time>2013-06-29T08:55:10Z</time>
            </trkpt>
            <trkpt lon="99.978262" lat="12.421242">
                <ele>20.810000</ele>
                <time>2013-06-29T08:55:37Z</time>
            </trkpt>
            <trkpt lon="99.978461" lat="12.421788">
                <ele>17.440000</ele>
                <time>2013-06-29T08:55:49Z</time>
            </trkpt>
            <trkpt lon="99.977760" lat="12.422979">
                <ele>20.320000</ele>
                <time>2013-06-29T08:56:21Z</time>
            </trkpt>
            <trkpt lon="99.977638" lat="12.425053">
                <ele>17.440000</ele>
                <time>2013-06-29T08:57:07Z</time>
            </trkpt>
            <trkpt lon="99.979595" lat="12.425660">
                <ele>15.520000</ele>
                <time>2013-06-29T08:57:53Z</time>
            </trkpt>
            <trkpt lon="99.979306" lat="12.427502">
                <ele>15.520000</ele>
                <time>2013-06-29T08:58:33Z</time>
            </trkpt>
            <trkpt lon="99.978800" lat="12.428281">
                <ele>16.000000</ele>
                <time>2013-06-29T08:59:07Z</time>
            </trkpt>
            <trkpt lon="99.978368" lat="12.429493">
                <ele>14.080000</ele>
                <time>2013-06-29T09:33:25Z</time>
            </trkpt>
            <trkpt lon="99.978936" lat="12.430639">
                <ele>14.560000</ele>
                <time>2013-06-29T09:33:52Z</time>
            </trkpt>
            <trkpt lon="99.978832" lat="12.431774">
                <ele>14.080000</ele>
                <time>2013-06-29T09:34:14Z</time>
            </trkpt>
            <trkpt lon="99.977756" lat="12.432726">
                <ele>16.000000</ele>
                <time>2013-06-29T09:34:43Z</time>
            </trkpt>
            <trkpt lon="99.976268" lat="12.434824">
                <ele>16.960000</ele>
                <time>2013-06-29T09:35:35Z</time>
            </trkpt>
            <trkpt lon="99.974953" lat="12.435305">
                <ele>19.840000</ele>
                <time>2013-06-29T09:36:08Z</time>
            </trkpt>
            <trkpt lon="99.971423" lat="12.438485">
                <ele>43.880000</ele>
                <time>2013-06-29T09:39:53Z</time>
            </trkpt>
            <trkpt lon="99.971152" lat="12.438847">
                <ele>45.800000</ele>
                <time>2013-06-29T09:40:06Z</time>
            </trkpt>
            <trkpt lon="99.969952" lat="12.441284">
                <ele>35.710000</ele>
                <time>2013-06-29T09:40:47Z</time>
            </trkpt>
            <trkpt lon="99.969534" lat="12.443657">
                <ele>27.050000</ele>
                <time>2013-06-29T09:41:14Z</time>
            </trkpt>
            <trkpt lon="99.969174" lat="12.444347">
                <ele>25.130000</ele>
                <time>2013-06-29T09:41:25Z</time>
            </trkpt>
            <trkpt lon="99.969610" lat="12.444207">
                <ele>24.650000</ele>
                <time>2013-06-29T09:41:48Z</time>
            </trkpt>
            <trkpt lon="99.970987" lat="12.446578">
                <ele>19.840000</ele>
                <time>2013-06-29T09:42:35Z</time>
            </trkpt>
            <trkpt lon="99.971364" lat="12.450372">
                <ele>16.000000</ele>
                <time>2013-06-29T09:43:34Z</time>
            </trkpt>
            <trkpt lon="99.971693" lat="12.451082">
                <ele>16.480000</ele>
                <time>2013-06-29T09:43:47Z</time>
            </trkpt>
            <trkpt lon="99.972600" lat="12.450419">
                <ele>17.440000</ele>
                <time>2013-06-29T09:44:16Z</time>
            </trkpt>
            <trkpt lon="99.973078" lat="12.451157">
                <ele>18.880000</ele>
                <time>2013-06-29T09:44:37Z</time>
            </trkpt>
            <trkpt lon="99.975539" lat="12.452236">
                <ele>21.290000</ele>
                <time>2013-06-29T09:45:33Z</time>
            </trkpt>
            <trkpt lon="99.977497" lat="12.453175">
                <ele>14.560000</ele>
                <time>2013-06-29T09:46:07Z</time>
            </trkpt>
            <trkpt lon="99.977003" lat="12.454161">
                <ele>13.600000</ele>
                <time>2013-06-29T09:46:28Z</time>
            </trkpt>
            <trkpt lon="99.977110" lat="12.454631">
                <ele>13.600000</ele>
                <time>2013-06-29T09:46:36Z</time>
            </trkpt>
            <trkpt lon="99.977866" lat="12.454944">
                <ele>13.120000</ele>
                <time>2013-06-29T09:46:52Z</time>
            </trkpt>
            <trkpt lon="99.978624" lat="12.455701">
                <ele>13.600000</ele>
                <time>2013-06-29T09:47:11Z</time>
            </trkpt>
            <trkpt lon="99.978734" lat="12.455975">
                <ele>13.120000</ele>
                <time>2013-06-29T09:47:19Z</time>
            </trkpt>
            <trkpt lon="99.978407" lat="12.456593">
                <ele>12.630000</ele>
                <time>2013-06-29T09:47:39Z</time>
            </trkpt>
            <trkpt lon="99.977393" lat="12.457147">
                <ele>13.120000</ele>
                <time>2013-06-29T09:48:01Z</time>
            </trkpt>
            <trkpt lon="99.975940" lat="12.458759">
                <ele>12.150000</ele>
                <time>2013-06-29T09:48:41Z</time>
            </trkpt>
            <trkpt lon="99.975415" lat="12.460398">
                <ele>12.630000</ele>
                <time>2013-06-29T09:49:19Z</time>
            </trkpt>
            <trkpt lon="99.974607" lat="12.461724">
                <ele>13.120000</ele>
                <time>2013-06-29T09:49:50Z</time>
            </trkpt>
            <trkpt lon="99.974299" lat="12.463274">
                <ele>12.630000</ele>
                <time>2013-06-29T09:50:20Z</time>
            </trkpt>
            <trkpt lon="99.975947" lat="12.463892">
                <ele>15.040000</ele>
                <time>2013-06-29T09:51:08Z</time>
            </trkpt>
            <trkpt lon="99.976293" lat="12.463984">
                <ele>15.040000</ele>
                <time>2013-06-29T09:51:16Z</time>
            </trkpt>
            <trkpt lon="99.977188" lat="12.464247">
                <ele>9.750000</ele>
                <time>2013-06-29T09:51:41Z</time>
            </trkpt>
            <trkpt lon="99.976248" lat="12.471704">
                <ele>9.270000</ele>
                <time>2013-06-29T09:54:39Z</time>
            </trkpt>
            <trkpt lon="99.976041" lat="12.475880">
                <ele>10.230000</ele>
                <time>2013-06-29T09:56:06Z</time>
            </trkpt>
            <trkpt lon="99.976019" lat="12.480407">
                <ele>8.310000</ele>
                <time>2013-06-29T09:57:57Z</time>
            </trkpt>
            <trkpt lon="99.975668" lat="12.480581">
                <ele>7.830000</ele>
                <time>2013-06-29T09:58:10Z</time>
            </trkpt>
            <trkpt lon="99.975476" lat="12.482320">
                <ele>13.600000</ele>
                <time>2013-06-29T09:58:55Z</time>
            </trkpt>
            <trkpt lon="99.975307" lat="12.487294">
                <ele>7.830000</ele>
                <time>2013-06-29T10:00:47Z</time>
            </trkpt>
            <trkpt lon="99.974878" lat="12.489294">
                <ele>8.310000</ele>
                <time>2013-06-29T10:01:32Z</time>
            </trkpt>
            <trkpt lon="99.975287" lat="12.496757">
                <ele>7.830000</ele>
                <time>2013-06-29T10:04:03Z</time>
            </trkpt>
            <trkpt lon="99.974930" lat="12.498421">
                <ele>8.310000</ele>
                <time>2013-06-29T10:04:43Z</time>
            </trkpt>
            <trkpt lon="99.974760" lat="12.498886">
                <ele>7.830000</ele>
                <time>2013-06-29T10:04:55Z</time>
            </trkpt>
            <trkpt lon="99.975378" lat="12.504283">
                <ele>7.830000</ele>
                <time>2013-06-29T10:06:50Z</time>
            </trkpt>
            <trkpt lon="99.976478" lat="12.507096">
                <ele>7.830000</ele>
                <time>2013-06-29T10:07:53Z</time>
            </trkpt>
            <trkpt lon="99.976263" lat="12.507967">
                <ele>9.750000</ele>
                <time>2013-06-29T10:08:42Z</time>
            </trkpt>
            <trkpt lon="99.977338" lat="12.508874">
                <ele>7.350000</ele>
                <time>2013-06-29T10:09:32Z</time>
            </trkpt>
            <trkpt lon="99.980034" lat="12.512945">
                <ele>7.350000</ele>
                <time>2013-06-29T10:11:41Z</time>
            </trkpt>
            <trkpt lon="99.980231" lat="12.513638">
                <ele>8.310000</ele>
                <time>2013-06-29T10:12:04Z</time>
            </trkpt>
            <trkpt lon="99.978301" lat="12.514486">
                <ele>10.230000</ele>
                <time>2013-06-29T10:13:03Z</time>
            </trkpt>
            <trkpt lon="99.976225" lat="12.514952">
                <ele>9.750000</ele>
                <time>2013-06-29T10:13:52Z</time>
            </trkpt>
            <trkpt lon="99.979924" lat="12.513924">
                <ele>10.230000</ele>
                <time>2013-06-29T10:15:26Z</time>
            </trkpt>
            <trkpt lon="99.980156" lat="12.513936">
                <ele>9.750000</ele>
                <time>2013-06-29T10:15:34Z</time>
            </trkpt>
            <trkpt lon="99.980032" lat="12.514247">
                <ele>9.750000</ele>
                <time>2013-06-29T10:15:47Z</time>
            </trkpt>
            <trkpt lon="99.979481" lat="12.514139">
                <ele>10.710000</ele>
                <time>2013-06-29T10:16:08Z</time>
            </trkpt>
            <trkpt lon="99.979414" lat="12.514459">
                <ele>10.230000</ele>
                <time>2013-06-29T10:16:16Z</time>
            </trkpt>
            <trkpt lon="99.979902" lat="12.515106">
                <ele>10.710000</ele>
                <time>2013-06-29T10:16:38Z</time>
            </trkpt>
            <trkpt lon="99.979614" lat="12.515457">
                <ele>11.190000</ele>
                <time>2013-06-29T10:16:50Z</time>
            </trkpt>
            <trkpt lon="99.978989" lat="12.515993">
                <ele>10.710000</ele>
                <time>2013-06-29T10:17:08Z</time>
            </trkpt>
            <trkpt lon="99.978283" lat="12.515752">
                <ele>9.750000</ele>
                <time>2013-06-29T10:17:38Z</time>
            </trkpt>
            <trkpt lon="99.976959" lat="12.515903">
                <ele>10.710000</ele>
                <time>2013-06-29T10:18:09Z</time>
            </trkpt>
            <trkpt lon="99.976263" lat="12.516160">
                <ele>9.750000</ele>
                <time>2013-06-29T10:18:27Z</time>
            </trkpt>
            <trkpt lon="99.976151" lat="12.516874">
                <ele>9.750000</ele>
                <time>2013-06-29T10:18:57Z</time>
            </trkpt>
            <trkpt lon="99.976155" lat="12.514634">
                <ele>10.710000</ele>
                <time>2013-06-29T10:20:00Z</time>
            </trkpt>
            <trkpt lon="99.975535" lat="12.510774">
                <ele>12.630000</ele>
                <time>2013-06-29T10:21:21Z</time>
            </trkpt>
            <trkpt lon="99.975321" lat="12.510587">
                <ele>13.600000</ele>
                <time>2013-06-29T10:21:28Z</time>
            </trkpt>
            <trkpt lon="99.972812" lat="12.510800">
                <ele>14.560000</ele>
                <time>2013-06-29T10:22:11Z</time>
            </trkpt>
            <trkpt lon="99.972244" lat="12.510806">
                <ele>13.600000</ele>
                <time>2013-06-29T10:22:21Z</time>
            </trkpt>
            <trkpt lon="99.972037" lat="12.514299">
                <ele>13.120000</ele>
                <time>2013-06-29T10:24:27Z</time>
            </trkpt>
            <trkpt lon="99.972542" lat="12.515144">
                <ele>11.190000</ele>
                <time>2013-06-29T10:24:47Z</time>
            </trkpt>
            <trkpt lon="99.973217" lat="12.515543">
                <ele>11.190000</ele>
                <time>2013-06-29T10:25:00Z</time>
            </trkpt>
            <trkpt lon="99.974840" lat="12.514945">
                <ele>11.190000</ele>
                <time>2013-06-29T10:25:33Z</time>
            </trkpt>
            <trkpt lon="99.975385" lat="12.515057">
                <ele>11.190000</ele>
                <time>2013-06-29T10:25:49Z</time>
            </trkpt>
            <trkpt lon="99.974817" lat="12.514952">
                <ele>10.710000</ele>
                <time>2013-06-29T10:26:09Z</time>
            </trkpt>
            <trkpt lon="99.974004" lat="12.515332">
                <ele>11.190000</ele>
                <time>2013-06-29T10:26:26Z</time>
            </trkpt>
            <trkpt lon="99.973489" lat="12.515559">
                <ele>10.710000</ele>
                <time>2013-06-29T10:26:37Z</time>
            </trkpt>
            <trkpt lon="99.972864" lat="12.515379">
                <ele>11.190000</ele>
                <time>2013-06-29T10:26:50Z</time>
            </trkpt>
            <trkpt lon="99.972804" lat="12.517007">
                <ele>11.190000</ele>
                <time>2013-06-29T10:27:38Z</time>
            </trkpt>
            <trkpt lon="99.972800" lat="12.517683">
                <ele>10.230000</ele>
                <time>2013-06-29T10:28:02Z</time>
            </trkpt>
            <trkpt lon="99.972218" lat="12.517901">
                <ele>9.750000</ele>
                <time>2013-06-29T10:28:16Z</time>
            </trkpt>
            <trkpt lon="99.971674" lat="12.521795">
                <ele>10.230000</ele>
                <time>2013-06-29T10:29:32Z</time>
            </trkpt>
            <trkpt lon="99.970524" lat="12.524132">
                <ele>10.710000</ele>
                <time>2013-06-29T10:30:19Z</time>
            </trkpt>
            <trkpt lon="99.970486" lat="12.524232">
                <ele>10.230000</ele>
                <time>2013-06-29T10:30:21Z</time>
            </trkpt>
            <trkpt lon="99.969408" lat="12.524980">
                <ele>12.150000</ele>
                <time>2013-06-29T10:30:50Z</time>
            </trkpt>
            <trkpt lon="99.968004" lat="12.524497">
                <ele>16.000000</ele>
                <time>2013-06-29T10:31:18Z</time>
            </trkpt>
            <trkpt lon="99.965394" lat="12.523566">
                <ele>13.600000</ele>
                <time>2013-06-29T10:31:59Z</time>
            </trkpt>
            <trkpt lon="99.963489" lat="12.523220">
                <ele>15.520000</ele>
                <time>2013-06-29T10:32:37Z</time>
            </trkpt>
            <trkpt lon="99.963472" lat="12.523220">
                <ele>15.040000</ele>
                <time>2013-06-29T10:32:54Z</time>
            </trkpt>
            <trkpt lon="99.966179" lat="12.523851">
                <ele>14.080000</ele>
                <time>2013-06-29T10:34:15Z</time>
            </trkpt>
            <trkpt lon="99.966092" lat="12.524778">
                <ele>12.150000</ele>
                <time>2013-06-29T10:34:32Z</time>
            </trkpt>
            <trkpt lon="99.965303" lat="12.525697">
                <ele>10.710000</ele>
                <time>2013-06-29T10:34:53Z</time>
            </trkpt>
            <trkpt lon="99.968022" lat="12.527239">
                <ele>10.230000</ele>
                <time>2013-06-29T10:36:14Z</time>
            </trkpt>
            <trkpt lon="99.967716" lat="12.527893">
                <ele>25.130000</ele>
                <time>2013-06-29T10:37:12Z</time>
            </trkpt>
            <trkpt lon="99.963193" lat="12.535739">
                <ele>10.230000</ele>
                <time>2013-06-29T10:41:07Z</time>
            </trkpt>
            <trkpt lon="99.962296" lat="12.538644">
                <ele>12.150000</ele>
                <time>2013-06-29T10:42:10Z</time>
            </trkpt>
            <trkpt lon="99.961396" lat="12.538582">
                <ele>11.670000</ele>
                <time>2013-06-29T10:42:53Z</time>
            </trkpt>
            <trkpt lon="99.960298" lat="12.540487">
                <ele>11.190000</ele>
                <time>2013-06-29T10:43:39Z</time>
            </trkpt>
            <trkpt lon="99.956319" lat="12.539033">
                <ele>12.150000</ele>
                <time>2013-06-29T10:44:50Z</time>
            </trkpt>
            <trkpt lon="99.955215" lat="12.539354">
                <ele>12.630000</ele>
                <time>2013-06-29T10:45:10Z</time>
            </trkpt>
            <trkpt lon="99.954404" lat="12.538960">
                <ele>13.120000</ele>
                <time>2013-06-29T10:45:24Z</time>
            </trkpt>
            <trkpt lon="99.954100" lat="12.538866">
                <ele>13.120000</ele>
                <time>2013-06-29T10:45:30Z</time>
            </trkpt>
            <trkpt lon="99.954099" lat="12.538432">
                <ele>13.120000</ele>
                <time>2013-06-29T10:45:43Z</time>
            </trkpt>
            <trkpt lon="99.955315" lat="12.536407">
                <ele>16.960000</ele>
                <time>2013-06-29T10:47:04Z</time>
            </trkpt>
            <trkpt lon="99.955626" lat="12.535892">
                <ele>13.600000</ele>
                <time>2013-06-29T10:47:48Z</time>
            </trkpt>
            <trkpt lon="99.954666" lat="12.535860">
                <ele>16.480000</ele>
                <time>2013-06-29T10:48:51Z</time>
            </trkpt>
            <trkpt lon="99.957603" lat="12.535483">
                <ele>13.120000</ele>
                <time>2013-06-29T10:50:29Z</time>
            </trkpt>
            <trkpt lon="99.956560" lat="12.533109">
                <ele>13.600000</ele>
                <time>2013-06-29T10:51:17Z</time>
            </trkpt>
            <trkpt lon="99.958012" lat="12.533145">
                <ele>12.630000</ele>
                <time>2013-06-29T10:51:45Z</time>
            </trkpt>
            <trkpt lon="99.959288" lat="12.532804">
                <ele>11.670000</ele>
                <time>2013-06-29T10:52:08Z</time>
            </trkpt>
            <trkpt lon="99.960003" lat="12.532131">
                <ele>11.670000</ele>
                <time>2013-06-29T10:52:26Z</time>
            </trkpt>
            <trkpt lon="99.959372" lat="12.531554">
                <ele>15.040000</ele>
                <time>2013-06-29T10:53:19Z</time>
            </trkpt>
            <trkpt lon="99.959205" lat="12.531469">
                <ele>13.600000</ele>
                <time>2013-06-29T10:54:00Z</time>
            </trkpt>
        </trkseg>
    </trk>
</gpx>